Minto, North Dakota
Current Conditions -  °F | °C
As of 2:55 AM on Wednesday 26 Nov 2014 (Local Time) from KGAF Reporting Station
Broken Clouds Broken Clouds  
Wind Chill: -19°   Ceiling: 9500
Heat Index:   Visibility: 10mi
Dew Point: -4°   Wind: 17mph
Humidity: 78%   Direction: 350°N
Pressure: 30.3"   Gusts: 22mph
Location:  48.29°N, 97.37°W
Report Text: KGAF 260855Z AUTO 35015G19KT 10SM BKN095 M17/M20 A3030 RMK AO2
Loading
Personal Weather Stations






























Interactive Weather Map New forecast layout! Learn more

10-Day Weather Forecast

Advertisements
Track Severe Weather on mobile